Time;durP1;ratioP1;P1;durP2;ratioP2;P2;SDS_P1;SDS_P2;PMS_P1;PMS_P2;Temp;Humidity;BMP_temperature;BMP_pressure;BME280_temperature;BME280_humidity;BME280_pressure;Samples;Min_cycle;Max_cycle;Signal;HPM_P1;HPM_P2
2021/10/04 00:02:23;;;;;;;0.88;0.80;;;;;;;14.18;70.99;98827.13;2618118;54;20088;-65
2021/10/04 00:04:55;;;;;;;1.17;1.08;;;;;;;14.21;70.28;98830.16;2617834;54;20042;-64
2021/10/04 00:07:25;;;;;;;2.55;1.05;;;;;;;14.19;70.40;98844.69;2618164;54;20038;-64
2021/10/04 00:09:54;;;;;;;1.13;1.02;;;;;;;14.22;70.44;98849.59;2617520;54;20030;-65
2021/10/04 00:12:24;;;;;;;0.70;0.70;;;;;;;14.24;70.72;98853.63;2617638;54;20033;-64
2021/10/04 00:14:54;;;;;;;1.85;0.90;;;;;;;14.23;70.35;98865.31;2617430;47;20030;-64
2021/10/04 00:17:23;;;;;;;0.90;0.90;;;;;;;14.19;70.36;98861.44;2617285;54;20130;-64
2021/10/04 00:19:56;;;;;;;1.00;0.75;;;;;;;14.18;71.08;98865.16;2617935;54;20031;-64
2021/10/04 00:22:25;;;;;;;0.95;0.90;;;;;;;14.15;71.00;98872.72;2618089;54;20050;-64
2021/10/04 00:24:55;;;;;;;0.73;0.63;;;;;;;14.18;71.41;98859.84;2618781;54;20037;-64
2021/10/04 00:27:25;;;;;;;1.08;0.73;;;;;;;14.20;71.45;98870.25;2618847;54;20037;-64
2021/10/04 00:29:55;;;;;;;1.05;0.95;;;;;;;14.22;71.52;98865.53;2619094;54;20049;-65
2021/10/04 00:32:24;;;;;;;1.30;0.70;;;;;;;14.18;71.32;98859.03;2618803;47;20026;-64
2021/10/04 00:34:57;;;;;;;0.80;0.80;;;;;;;14.10;71.44;98857.44;2618628;54;20530;-64
2021/10/04 00:37:26;;;;;;;1.20;1.10;;;;;;;14.11;72.07;98857.19;2618920;54;20034;-64
2021/10/04 00:39:56;;;;;;;1.55;1.17;;;;;;;14.15;72.06;98852.28;2618955;54;20030;-64
2021/10/04 00:42:27;;;;;;;1.65;1.45;;;;;;;14.17;71.70;98844.91;2619100;54;20042;-64
2021/10/04 00:44:56;;;;;;;2.63;1.63;;;;;;;14.18;71.96;98838.56;2618664;54;20034;-64
2021/10/04 00:47:26;;;;;;;3.25;1.70;;;;;;;14.16;71.78;98847.78;2618972;54;20038;-65
2021/10/04 00:49:58;;;;;;;2.08;1.40;;;;;;;14.09;71.95;98832.69;2619099;54;20025;-65
2021/10/04 00:52:28;;;;;;;1.90;1.33;;;;;;;14.07;71.83;98824.09;2618570;54;20041;-65
2021/10/04 00:54:58;;;;;;;1.10;1.00;;;;;;;14.06;71.98;98821.66;2618749;54;20027;-65
2021/10/04 00:57:27;;;;;;;1.10;1.00;;;;;;;14.06;72.13;98821.66;2618953;54;20030;-65
2021/10/04 00:59:57;;;;;;;2.78;1.10;;;;;;;14.07;72.34;98818.78;2619001;54;20031;-65
2021/10/04 01:02:27;;;;;;;0.80;0.80;;;;;;;14.04;71.83;98816.56;2619048;54;20038;-65
2021/10/04 01:04:59;;;;;;;1.95;1.17;;;;;;;14.07;72.01;98807.34;2618563;54;20038;-65
2021/10/04 01:07:28;;;;;;;1.95;0.95;;;;;;;14.05;71.70;98815.53;2619021;54;20063;-65
2021/10/04 01:09:58;;;;;;;0.82;0.82;;;;;;;14.06;71.60;98819.81;2618958;54;20042;-65
2021/10/04 01:12:28;;;;;;;1.40;1.15;;;;;;;14.04;71.84;98844.97;2619264;39;20426;-65
2021/10/04 01:14:57;;;;;;;1.95;1.52;;;;;;;13.92;72.06;98852.84;2618987;39;20403;-65
2021/10/04 01:17:27;;;;;;;1.00;0.90;;;;;;;13.83;72.38;98849.59;2618849;54;20035;-65
2021/10/04 01:19:59;;;;;;;3.10;1.35;;;;;;;13.85;72.34;98857.38;2618688;54;20034;-65
2021/10/04 01:22:32;;;;;;;1.48;0.82;;;;;;;13.84;72.40;98864.53;2619071;54;20038;-65
2021/10/04 01:25:01;;;;;;;1.05;0.80;;;;;;;13.78;72.69;98849.41;2618624;54;20058;-65
2021/10/04 01:27:31;;;;;;;2.00;0.82;;;;;;;13.72;72.72;98841.50;2618728;54;20038;-65
2021/10/04 01:30:00;;;;;;;0.70;0.70;;;;;;;13.70;72.57;98852.31;2618833;54;20042;-66
2021/10/04 01:32:30;;;;;;;3.25;0.88;;;;;;;13.68;72.66;98830.47;2619208;54;20030;-66
2021/10/04 01:35:00;;;;;;;0.98;0.75;;;;;;;13.65;72.68;98844.16;2618620;54;20103;-65
2021/10/04 01:37:32;;;;;;;0.73;0.60;;;;;;;13.66;72.83;98844.97;2619282;39;20430;-66
2021/10/04 01:40:01;;;;;;;1.60;1.00;;;;;;;13.60;72.67;98836.03;2618945;54;20038;-65
2021/10/04 01:42:31;;;;;;;0.90;0.85;;;;;;;13.57;73.32;98844.41;2619009;54;20031;-65
2021/10/04 01:45:01;;;;;;;1.38;1.20;;;;;;;13.56;73.08;98848.09;2618541;54;20026;-65
2021/10/04 01:47:31;;;;;;;1.13;1.00;;;;;;;13.61;73.34;98842.97;2618661;54;20027;-65
2021/10/04 01:50:01;;;;;;;2.75;1.00;;;;;;;13.57;73.26;98842.56;2618726;54;20070;-65
2021/10/04 01:52:33;;;;;;;1.10;1.00;;;;;;;13.59;73.56;98855.63;2618726;54;20038;-65
2021/10/04 01:55:03;;;;;;;1.92;1.23;;;;;;;13.62;73.45;98857.88;2618555;54;20046;-65
2021/10/04 01:57:32;;;;;;;2.35;1.70;;;;;;;13.56;73.25;98856.06;2619173;47;20030;-64
2021/10/04 02:00:03;;;;;;;2.22;1.48;;;;;;;13.52;73.73;98852.19;2619382;39;20453;-64
2021/10/04 02:02:40;;;;;;;1.52;1.33;;;;;;;13.57;73.41;98868.31;2619328;54;20037;-64
2021/10/04 02:05:11;;;;;;;1.55;1.17;;;;;;;13.51;73.47;98867.31;2618815;54;20046;-64
2021/10/04 02:07:43;;;;;;;1.63;1.10;;;;;;;13.44;73.83;98852.44;2618819;54;20103;-64
2021/10/04 02:10:15;;;;;;;2.42;1.38;;;;;;;13.45;73.88;98856.72;2618773;54;20153;-64
2021/10/04 02:12:46;;;;;;;1.48;1.38;;;;;;;13.48;73.72;98851.81;2618861;54;20038;-64
2021/10/04 02:15:16;;;;;;;2.90;1.30;;;;;;;13.49;73.97;98860.59;2618728;54;20022;-64
2021/10/04 02:17:46;;;;;;;2.72;1.35;;;;;;;13.52;73.52;98862.81;2618961;54;20022;-64
2021/10/04 02:20:17;;;;;;;1.60;1.50;;;;;;;13.51;73.75;98850.56;2617910;47;20022;-64
2021/10/04 02:22:50;;;;;;;2.45;1.70;;;;;;;13.52;73.72;98842.38;2618417;54;20069;-64
2021/10/04 02:25:21;;;;;;;1.92;1.50;;;;;;;13.57;73.43;98839.09;2618560;54;20030;-65
2021/10/04 02:27:52;;;;;;;2.05;1.67;;;;;;;13.56;74.00;98835.63;2618334;54;20038;-64
2021/10/04 02:30:23;;;;;;;1.40;1.23;;;;;;;13.59;73.53;98829.91;2618772;54;20038;-64
2021/10/04 02:32:55;;;;;;;2.25;1.10;;;;;;;13.56;73.69;98832.97;2618549;54;20103;-64
2021/10/04 02:35:25;;;;;;;1.40;1.30;;;;;;;13.54;73.35;98831.53;2618085;54;20541;-64
2021/10/04 02:37:58;;;;;;;1.50;1.40;;;;;;;13.51;73.56;98835.47;2619073;39;20441;-65
2021/10/04 02:40:28;;;;;;;1.38;1.08;;;;;;;13.52;73.76;98830.97;2618588;54;20069;-64
2021/10/04 02:42:58;;;;;;;1.33;1.23;;;;;;;13.52;73.61;98828.31;2618545;54;20038;-64
2021/10/04 02:45:29;;;;;;;2.05;1.33;;;;;;;13.56;73.94;98840.94;2618618;46;20066;-64
2021/10/04 02:48:02;;;;;;;2.83;1.00;;;;;;;13.57;73.63;98841.75;2618166;47;20019;-64
2021/10/04 02:50:32;;;;;;;2.00;1.30;;;;;;;13.58;73.80;98838.88;2620947;54;20018;-65
2021/10/04 02:53:05;;;;;;;3.08;1.60;;;;;;;13.64;73.46;98823.97;2621836;54;20034;-64
2021/10/04 02:55:36;;;;;;;;;;;;;;;13.62;73.64;98836.63;2621954;54;20058;-64
2021/10/04 02:58:06;;;;;;;1.40;1.30;;;;;;;13.61;73.30;98843.78;2621768;54;19946;-64
2021/10/04 03:00:39;;;;;;;3.22;1.88;;;;;;;13.59;73.77;98850.31;2620240;46;20038;-64
2021/10/04 03:03:09;;;;;;;3.88;1.83;;;;;;;13.57;73.42;98858.50;2618830;54;20065;-64
2021/10/04 03:05:39;;;;;;;3.10;2.03;;;;;;;13.57;73.82;98857.69;2618370;54;20049;-64
2021/10/04 03:08:11;;;;;;;2.10;1.90;;;;;;;13.53;73.38;98865.25;2618370;54;20061;-64
2021/10/04 03:10:41;;;;;;;2.20;1.90;;;;;;;13.51;73.44;98871.78;2618648;54;20034;-64
2021/10/04 03:13:10;;;;;;;2.47;1.73;;;;;;;13.50;73.75;98891.41;2618444;47;20038;-64
2021/10/04 03:15:40;;;;;;;2.47;2.03;;;;;;;13.44;73.87;98887.78;2620699;47;20041;-64
2021/10/04 03:18:10;;;;;;;1.55;1.45;;;;;;;13.38;73.95;98881.44;2621349;54;20037;-64
2021/10/04 03:20:39;;;;;;;2.08;1.70;;;;;;;13.41;74.24;98882.06;2621478;54;20011;-64
2021/10/04 03:23:12;;;;;;;1.67;1.58;;;;;;;13.40;74.44;98886.56;2619840;54;20038;-63
2021/10/04 03:25:41;;;;;;;1.70;1.60;;;;;;;13.39;74.49;98895.56;2619345;46;20509;-64
2021/10/04 03:28:11;;;;;;;1.92;1.50;;;;;;;13.44;74.89;98892.28;2618257;54;20538;-64
2021/10/04 03:30:41;;;;;;;1.70;1.60;;;;;;;13.46;74.62;98891.00;2619215;54;20553;-65
2021/10/04 03:33:12;;;;;;;6.65;5.47;;;;;;;13.48;74.44;98893.47;2618705;54;20142;-64
2021/10/04 03:35:42;;;;;;;2.45;1.83;;;;;;;13.47;74.64;98890.00;2618088;47;20022;-66
2021/10/04 03:38:14;;;;;;;3.22;2.17;;;;;;;13.52;74.40;98886.72;2617893;47;20573;-64
2021/10/04 03:40:43;;;;;;;2.10;1.90;;;;;;;13.47;74.59;98890.00;2618184;54;20073;-64
2021/10/04 03:43:13;;;;;;;2.00;1.90;;;;;;;13.52;74.24;98894.69;2618536;54;20161;-64
2021/10/04 03:45:43;;;;;;;2.72;2.00;;;;;;;13.51;73.95;98893.88;2618497;54;20082;-64
2021/10/04 03:48:12;;;;;;;2.60;2.20;;;;;;;13.48;74.43;98904.09;2618053;54;20045;-64
2021/10/04 03:50:42;;;;;;;5.45;2.40;;;;;;;13.47;74.32;98895.31;2618958;39;20460;-64
2021/10/04 03:53:14;;;;;;;3.22;1.90;;;;;;;13.49;74.61;98884.47;2617835;54;20034;-64
2021/10/04 03:55:44;;;;;;;2.40;2.20;;;;;;;13.46;74.13;98891.00;2618138;54;20030;-64
2021/10/04 03:58:14;;;;;;;4.07;2.70;;;;;;;13.45;74.83;98894.69;2619407;39;20453;-64
2021/10/04 04:00:44;;;;;;;6.50;3.50;;;;;;;13.49;74.46;98897.75;2619087;54;20047;-64
2021/10/04 04:03:14;;;;;;;6.07;3.97;;;;;;;13.50;74.55;98897.53;2618398;54;20089;-64
2021/10/04 04:05:43;;;;;;;5.38;4.05;;;;;;;13.53;74.67;98897.13;2619825;54;20041;-64
2021/10/04 04:08:16;;;;;;;4.22;3.40;;;;;;;13.54;74.37;98898.75;2619883;54;20026;-64
2021/10/04 04:10:45;;;;;;;4.75;3.38;;;;;;;13.55;74.58;98903.06;2620276;39;20497;-65
2021/10/04 04:13:15;;;;;;;5.43;4.57;;;;;;;13.53;74.53;98901.63;2619288;39;20137;-64
2021/10/04 04:15:46;;;;;;;4.28;3.60;;;;;;;13.50;74.55;98900.19;2622159;47;20019;-65
2021/10/04 04:18:16;;;;;;;3.60;3.30;;;;;;;13.57;74.65;98908.97;2624051;54;20038;-64
2021/10/04 04:20:45;;;;;;;3.40;3.08;;;;;;;13.62;74.33;98913.66;2619379;54;20034;-65
2021/10/04 04:23:18;;;;;;;2.45;2.22;;;;;;;13.63;73.73;98924.09;2619066;54;20561;-64
2021/10/04 04:25:48;;;;;;;3.03;2.72;;;;;;;13.60;74.06;98926.34;2618550;47;20030;-64
2021/10/04 04:28:17;;;;;;;3.80;2.88;;;;;;;13.58;74.32;98929.19;2619207;54;20042;-64
2021/10/04 04:30:47;;;;;;;4.82;3.60;;;;;;;13.58;73.92;98931.03;2619066;54;20018;-64
2021/10/04 04:33:19;;;;;;;3.25;3.00;;;;;;;13.52;74.31;98945.97;2618383;54;20034;-64
2021/10/04 04:35:49;;;;;;;3.45;3.15;;;;;;;13.51;74.79;98943.50;2618934;54;20034;-64
2021/10/04 04:38:22;;;;;;;3.50;3.20;;;;;;;13.49;74.62;98950.88;2618481;54;20041;-64
2021/10/04 04:40:52;;;;;;;3.08;2.60;;;;;;;13.48;74.66;98949.25;2618474;47;20034;-64
2021/10/04 04:43:21;;;;;;;3.13;2.85;;;;;;;13.48;74.94;98955.38;2619262;54;20046;-64
2021/10/04 04:45:54;;;;;;;2.65;2.45;;;;;;;13.49;74.78;98962.31;2619106;39;20466;-65
2021/10/04 04:48:24;;;;;;;6.60;2.95;;;;;;;13.46;74.70;98969.88;2619097;54;20026;-64
2021/10/04 04:50:58;;;;;;;3.27;2.97;;;;;;;13.47;75.15;98971.50;2619744;54;20053;-64
2021/10/04 04:53:32;;;;;;;5.03;3.20;;;;;;;13.53;75.24;98978.66;2619194;54;20565;-64
2021/10/04 04:56:01;;;;;;;4.63;3.30;;;;;;;13.56;75.03;98984.38;2618800;54;20045;-66
2021/10/04 04:58:31;;;;;;;3.33;3.03;;;;;;;13.59;75.02;98985.78;2618994;54;20038;-65
2021/10/04 05:01:01;;;;;;;3.70;3.40;;;;;;;13.61;74.74;98986.41;2618923;54;20026;-64
2021/10/04 05:03:31;;;;;;;3.85;3.40;;;;;;;13.55;74.90;98993.38;2618195;54;20121;-64
2021/10/04 05:06:01;;;;;;;3.65;3.35;;;;;;;13.54;74.70;98999.69;2618979;54;20530;-65
2021/10/04 05:08:33;;;;;;;5.80;3.90;;;;;;;13.50;75.00;99010.94;2619276;54;20045;-64
2021/10/04 05:11:02;;;;;;;5.47;4.10;;;;;;;13.49;74.97;99004.00;2619572;54;20542;-64
2021/10/04 05:13:32;;;;;;;4.60;3.90;;;;;;;13.52;75.34;99011.56;2619106;54;20026;-65
2021/10/04 05:16:02;;;;;;;7.57;3.80;;;;;;;13.50;75.52;99013.59;2618845;54;20035;-65
2021/10/04 05:18:32;;;;;;;3.92;3.60;;;;;;;13.49;75.14;99014.63;2618678;54;20030;-65
2021/10/04 05:21:07;;;;;;;3.35;3.10;;;;;;;13.47;75.03;99016.63;2619074;54;20061;-65
2021/10/04 05:23:47;;;;;;;3.67;3.38;;;;;;;13.48;75.23;99016.44;2619178;54;20557;-65
2021/10/04 05:26:16;;;;;;;4.80;3.33;;;;;;;13.46;75.49;99022.97;2621841;54;20045;-65
2021/10/04 05:28:46;;;;;;;4.40;2.90;;;;;;;13.42;75.59;99035.84;2622534;54;20038;-65
2021/10/04 05:31:16;;;;;;;4.13;3.63;;;;;;;13.42;75.85;99032.38;2622896;54;20035;-65
2021/10/04 05:33:46;;;;;;;4.20;2.80;;;;;;;13.41;75.81;99039.53;2622426;54;20932;-65
2021/10/04 05:36:16;;;;;;;3.40;2.90;;;;;;;13.41;76.08;99052.81;2622953;54;20023;-65
2021/10/04 05:38:48;;;;;;;3.33;3.03;;;;;;;13.45;76.16;99048.72;2622067;54;20031;-65
2021/10/04 05:41:20;;;;;;;3.67;2.60;;;;;;;13.44;75.68;99048.94;2622346;54;20048;-65
2021/10/04 05:43:49;;;;;;;5.78;3.20;;;;;;;13.45;76.09;99050.56;2621960;54;20026;-65
2021/10/04 05:46:19;;;;;;;9.13;3.20;;;;;;;13.46;75.94;99050.34;2618924;54;20081;-65
2021/10/04 05:48:49;;;;;;;2.72;2.25;;;;;;;13.43;75.63;99040.16;2618250;53;20034;-65
2021/10/04 05:51:20;;;;;;;6.80;1.92;;;;;;;13.36;75.58;99037.50;2619444;31;20534;-65
2021/10/04 05:53:52;;;;;;;2.95;2.13;;;;;;;13.28;76.25;99037.69;2618588;54;20069;-65
2021/10/04 05:56:22;;;;;;;2.90;2.70;;;;;;;13.27;76.28;99041.38;2618806;54;20027;-65
2021/10/04 05:58:51;;;;;;;4.45;3.05;;;;;;;13.29;76.48;99044.63;2618620;54;20042;-65
2021/10/04 06:01:21;;;;;;;2.95;2.70;;;;;;;13.32;76.78;99035.47;2618632;54;20030;-65
2021/10/04 06:03:51;;;;;;;4.88;3.38;;;;;;;13.34;77.00;99036.06;2618254;54;20043;-65
2021/10/04 06:06:20;;;;;;;2.35;2.10;;;;;;;13.34;76.58;99034.22;2618541;54;20138;-65
2021/10/04 06:08:53;;;;;;;2.22;2.03;;;;;;;13.35;76.89;99049.16;2617967;47;20027;-65
2021/10/04 06:11:22;;;;;;;2.20;2.00;;;;;;;13.41;76.88;99062.63;2618794;54;20050;-65
2021/10/04 06:13:52;;;;;;;4.80;3.22;;;;;;;13.43;76.24;99071.19;2618041;47;20073;-65
2021/10/04 06:16:22;;;;;;;6.20;2.30;;;;;;;13.41;76.64;99059.97;2618770;54;20043;-65
2021/10/04 06:18:52;;;;;;;2.65;2.38;;;;;;;13.39;76.35;99068.16;2618489;54;20027;-65
2021/10/04 06:21:21;;;;;;;3.10;2.55;;;;;;;13.37;76.57;99052.41;2617909;47;20034;-65
2021/10/04 06:23:54;;;;;;;3.15;2.20;;;;;;;13.36;76.32;99065.91;2618596;54;20034;-65
2021/10/04 06:26:23;;;;;;;7.18;4.55;;;;;;;13.38;76.14;99069.97;2618481;54;20037;-65
2021/10/04 06:28:56;;;;;;;3.78;3.47;;;;;;;13.45;76.43;99064.66;2618425;54;20557;-65
2021/10/04 06:31:28;;;;;;;6.55;5.57;;;;;;;13.53;76.46;99072.41;2618351;54;20033;-65
2021/10/04 06:33:58;;;;;;;2.92;2.72;;;;;;;13.56;75.90;99079.16;2617973;54;20026;-65
2021/10/04 06:36:27;;;;;;;2.22;2.03;;;;;;;13.50;75.85;99069.34;2618236;54;20049;-65
2021/10/04 06:39:00;;;;;;;7.45;5.95;;;;;;;13.51;76.13;99076.28;2618257;47;20027;-65
2021/10/04 06:41:29;;;;;;;9.45;7.57;;;;;;;13.53;75.91;99076.91;2618690;39;20466;-65
2021/10/04 06:43:59;;;;;;;6.57;3.92;;;;;;;13.50;75.67;99075.47;2617300;47;20030;-65
2021/10/04 06:46:28;;;;;;;3.28;2.20;;;;;;;13.51;76.07;99076.28;2618111;54;20034;-65
2021/10/04 06:48:59;;;;;;;3.08;2.08;;;;;;;13.59;76.26;99073.44;2618341;54;20089;-65
2021/10/04 06:51:29;;;;;;;2.78;2.55;;;;;;;13.69;75.87;99081.00;2617616;54;20034;-65
2021/10/04 06:54:01;;;;;;;3.30;2.33;;;;;;;13.68;75.06;99084.69;2618187;54;20034;-65
2021/10/04 06:56:31;;;;;;;2.97;1.90;;;;;;;13.59;75.26;99092.88;2618585;39;20434;-65
2021/10/04 06:59:00;;;;;;;2.90;2.60;;;;;;;13.50;76.08;99083.44;2618223;54;20526;-65
2021/10/04 07:01:30;;;;;;;2.88;1.95;;;;;;;13.52;76.51;99096.53;2617829;47;20027;-65
2021/10/04 07:04:01;;;;;;;2.60;1.80;;;;;;;13.52;76.00;99100.00;2618384;39;20449;-65
2021/10/04 07:06:34;;;;;;;10.88;1.75;;;;;;;13.54;75.90;99113.06;2618224;54;20089;-65
2021/10/04 07:09:11;;;;;;;4.43;3.58;;;;;;;13.65;76.35;99128.41;2621371;54;20018;-66
2021/10/04 07:11:40;;;;;;;3.35;1.55;;;;;;;13.74;75.84;99140.47;2623561;39;20694;-65
2021/10/04 07:14:10;;;;;;;1.73;1.63;;;;;;;13.74;75.26;99137.00;2618764;54;20049;-65
2021/10/04 07:16:40;;;;;;;1.70;1.60;;;;;;;13.71;75.19;99153.34;2618384;54;20039;-65
2021/10/04 07:19:09;;;;;;;2.15;1.77;;;;;;;13.68;75.01;99149.25;2618534;39;20507;-65
2021/10/04 07:21:39;;;;;;;2.20;1.70;;;;;;;13.67;75.54;99141.47;2618318;54;20042;-65
2021/10/04 07:24:11;;;;;;;2.00;1.90;;;;;;;13.68;75.59;99151.09;2618605;39;20422;-65
2021/10/04 07:26:41;;;;;;;2.30;1.83;;;;;;;13.61;75.70;99154.56;2618216;54;20025;-65
2021/10/04 07:29:10;;;;;;;2.88;1.75;;;;;;;13.65;75.79;99170.09;2618258;54;20029;-65
2021/10/04 07:31:40;;;;;;;2.38;1.65;;;;;;;13.69;75.25;99174.78;2617895;54;20027;-65
2021/10/04 07:34:10;;;;;;;1.73;1.63;;;;;;;13.63;75.74;99171.13;2617973;54;20030;-65
2021/10/04 07:36:40;;;;;;;1.88;1.75;;;;;;;13.65;75.72;99176.22;2618155;54;20037;-65
2021/10/04 07:39:12;;;;;;;2.20;2.03;;;;;;;13.74;75.55;99168.88;2618317;54;20042;-65
2021/10/04 07:41:43;;;;;;;2.22;1.90;;;;;;;13.76;75.62;99167.66;2618087;54;20035;-65
2021/10/04 07:44:13;;;;;;;2.88;2.20;;;;;;;13.82;75.70;99166.81;2617939;54;20037;-65
2021/10/04 07:46:42;;;;;;;1.95;1.77;;;;;;;13.85;75.70;99161.09;2617925;54;20034;-66
2021/10/04 07:49:12;;;;;;;2.45;1.63;;;;;;;13.91;75.48;99172.75;2617742;54;20057;-66
2021/10/04 07:51:58;;;;;;;1.75;1.38;;;;;;;13.98;75.12;99157.63;2617426;54;20569;-66
2021/10/04 07:54:30;;;;;;;1.60;1.50;;;;;;;14.09;74.86;99162.31;2618245;54;20030;-65
2021/10/04 07:57:00;;;;;;;3.05;1.80;;;;;;;14.16;74.66;99145.53;2618762;39;20449;-65
2021/10/04 07:59:30;;;;;;;2.13;1.95;;;;;;;14.25;74.20;99144.31;2618141;54;20033;-66
2021/10/04 08:01:59;;;;;;;4.90;2.45;;;;;;;14.29;73.66;99149.00;2618037;54;20030;-65
2021/10/04 08:04:29;;;;;;;2.53;2.30;;;;;;;14.30;73.81;99149.81;2618160;54;20118;-64
2021/10/04 08:06:59;;;;;;;4.00;2.22;;;;;;;14.35;73.69;99150.81;2618246;54;20045;-64
2021/10/04 08:09:31;;;;;;;3.85;2.78;;;;;;;14.38;73.45;99141.59;2617532;47;20031;-65
2021/10/04 08:12:01;;;;;;;4.07;2.55;;;;;;;14.42;73.42;99150.00;2618326;54;20045;-65
2021/10/04 08:14:30;;;;;;;2.50;2.08;;;;;;;14.48;73.88;99154.47;2618233;54;20025;-64
2021/10/04 08:17:00;;;;;;;2.00;1.80;;;;;;;14.58;73.15;99146.91;2618385;54;20087;-64
2021/10/04 08:19:30;;;;;;;3.88;2.58;;;;;;;14.63;72.90;99147.09;2618294;54;20034;-64
2021/10/04 08:22:00;;;;;;;5.03;1.90;;;;;;;14.67;73.08;99144.81;2618396;54;20054;-65
2021/10/04 08:24:32;;;;;;;1.75;1.30;;;;;;;14.66;72.55;99156.50;2618394;54;20038;-64
2021/10/04 08:27:02;;;;;;;3.58;2.10;;;;;;;14.68;72.14;99157.09;2618498;54;20061;-64
2021/10/04 08:29:31;;;;;;;1.77;1.58;;;;;;;14.71;72.47;99156.69;2618220;54;20034;-65
2021/10/04 08:32:01;;;;;;;1.50;1.40;;;;;;;14.70;72.16;99155.88;2618471;54;20034;-65
2021/10/04 08:34:31;;;;;;;2.30;1.35;;;;;;;14.66;71.57;99148.53;2618022;54;20030;-65
2021/10/04 08:37:00;;;;;;;3.20;1.60;;;;;;;14.53;71.73;99146.69;2618264;54;20560;-65
2021/10/04 08:39:33;;;;;;;2.97;2.67;;;;;;;14.54;72.21;99151.00;2618491;54;20049;-65
2021/10/04 08:42:04;;;;;;;5.35;4.90;;;;;;;14.66;72.77;99152.00;2618386;54;20033;-65
2021/10/04 08:44:35;;;;;;;2.38;2.25;;;;;;;14.77;71.90;99161.16;2618410;47;20045;-64
2021/10/04 08:47:07;;;;;;;3.58;1.70;;;;;;;14.81;70.97;99162.34;2619004;54;20034;-65
2021/10/04 08:49:37;;;;;;;1.48;1.38;;;;;;;14.80;70.84;99163.38;2618974;54;20015;-66
2021/10/04 08:52:08;;;;;;;1.58;1.48;;;;;;;14.89;70.64;99167.44;2618245;47;20551;-65
2021/10/04 08:54:40;;;;;;;2.60;1.65;;;;;;;14.98;70.64;99165.34;2618040;46;20033;-65
2021/10/04 08:57:09;;;;;;;2.63;2.03;;;;;;;15.05;70.99;99163.47;2618929;54;20026;-65
2021/10/04 08:59:39;;;;;;;2.08;1.30;;;;;;;15.18;71.02;99167.91;2619251;39;20407;-65
2021/10/04 09:02:25;;;;;;;1.45;1.35;;;;;;;15.16;70.02;99181.44;2618882;54;20046;-65
2021/10/04 09:05:11;;;;;;;3.53;1.35;;;;;;;15.23;70.28;99184.91;2618632;54;20523;-65
2021/10/04 09:07:42;;;;;;;1.75;1.15;;;;;;;15.27;70.55;99188.78;2619440;54;20049;-65
2021/10/04 09:10:19;;;;;;;1.30;1.20;;;;;;;15.19;70.40;99189.03;2619239;54;20022;-64
2021/10/04 09:12:54;;;;;;;1.15;1.08;;;;;;;15.11;70.60;99187.41;2619095;54;20046;-64
2021/10/04 09:15:34;;;;;;;2.97;1.50;;;;;;;15.16;70.97;99185.97;2618659;54;20031;-65
2021/10/04 09:18:07;;;;;;;4.68;1.60;;;;;;;15.15;70.68;99182.50;2619283;39;20434;-65
2021/10/04 09:20:52;;;;;;;5.25;1.33;;;;;;;15.08;70.31;99192.34;2618856;54;20033;-65
2021/10/04 09:23:44;;;;;;;1.00;0.90;;;;;;;14.98;70.05;99200.81;2618385;54;20038;-65
2021/10/04 09:26:36;;;;;;;1.40;1.17;;;;;;;14.95;70.95;99197.75;2619047;54;20045;-65
2021/10/04 09:29:08;;;;;;;1.75;1.60;;;;;;;14.90;70.87;99201.03;2618957;54;20031;-64
2021/10/04 09:31:39;;;;;;;1.10;1.00;;;;;;;14.80;70.87;99198.81;2619071;54;20026;-65
2021/10/04 09:34:12;;;;;;;2.38;1.30;;;;;;;14.78;71.09;99194.72;2618790;54;20037;-65
2021/10/04 09:36:43;;;;;;;1.30;1.20;;;;;;;14.80;71.12;99201.47;2618202;54;20041;-65
2021/10/04 09:39:20;;;;;;;1.70;1.25;;;;;;;14.78;70.82;99198.22;2618465;54;20555;-65
2021/10/04 09:42:09;;;;;;;2.08;1.20;;;;;;;14.86;71.27;99200.63;2619366;54;20039;-64
2021/10/04 09:44:51;;;;;;;2.78;1.20;;;;;;;14.89;70.62;99196.72;2620263;54;20031;-65
2021/10/04 09:47:23;;;;;;;3.45;1.48;;;;;;;14.91;70.33;99188.53;2619901;54;20022;-64
2021/10/04 09:50:02;;;;;;;1.63;1.30;;;;;;;14.93;70.35;99189.13;2619371;54;20019;-65
2021/10/04 09:52:40;;;;;;;1.65;1.13;;;;;;;14.93;70.96;99189.13;2619504;54;20037;-65
2021/10/04 09:55:24;;;;;;;2.38;1.42;;;;;;;14.98;70.52;99189.31;2618800;54;20034;-65
2021/10/04 09:58:10;;;;;;;1.52;1.15;;;;;;;15.08;70.45;99181.69;2619257;54;20075;-65
2021/10/04 10:00:42;;;;;;;1.50;1.02;;;;;;;15.13;70.43;99173.06;2618408;46;20037;-65
2021/10/04 10:03:14;;;;;;;1.27;1.17;;;;;;;15.20;71.02;99160.53;2618833;54;20033;-64
2021/10/04 10:05:46;;;;;;;3.35;1.00;;;;;;;15.24;70.40;99149.25;2618683;54;20057;-65
2021/10/04 10:08:17;;;;;;;2.60;0.98;;;;;;;15.25;70.77;99158.06;2619795;54;20038;-65
2021/10/04 10:10:48;;;;;;;0.80;0.80;;;;;;;15.33;70.04;99153.28;2620881;46;20026;-65
2021/10/04 10:13:22;;;;;;;3.17;0.90;;;;;;;15.27;69.03;99153.34;2619692;47;20134;-65
2021/10/04 10:16:02;;;;;;;2.72;0.90;;;;;;;15.25;69.51;99155.38;2619162;54;20042;-65
2021/10/04 10:18:37;;;;;;;4.72;1.15;;;;;;;15.23;69.56;99160.13;2618287;47;20130;-65
2021/10/04 10:21:09;;;;;;;3.42;0.75;;;;;;;15.20;69.45;99163.22;2619448;54;20053;-65
2021/10/04 10:23:50;;;;;;;2.72;1.30;;;;;;;15.25;70.09;99174.84;2618604;54;20033;-65
2021/10/04 10:26:32;;;;;;;1.00;0.90;;;;;;;15.30;69.96;99182.19;2618633;54;20046;-65
2021/10/04 10:29:26;;;;;;;1.50;0.90;;;;;;;15.36;69.60;99168.84;2617838;47;20026;-65
2021/10/04 10:32:09;;;;;;;0.60;0.60;;;;;;;15.47;69.85;99164.69;2618261;54;20019;-66
2021/10/04 10:34:53;;;;;;;0.88;0.70;;;;;;;15.50;69.51;99168.75;2618111;54;20035;-66
2021/10/04 10:37:28;;;;;;;1.10;0.82;;;;;;;15.45;69.64;99173.91;2618664;54;20038;-65
2021/10/04 10:40:00;;;;;;;2.67;1.48;;;;;;;15.40;69.36;99169.22;2618845;54;20026;-65
2021/10/04 10:42:34;;;;;;;2.17;1.10;;;;;;;15.46;69.11;99173.69;2618059;54;20568;-66
2021/10/04 10:45:22;;;;;;;0.80;0.80;;;;;;;15.43;69.33;99175.97;2618358;54;20573;-66
2021/10/04 10:47:59;;;;;;;1.50;1.40;;;;;;;15.45;69.67;99176.56;2618489;54;20034;-65
2021/10/04 10:50:38;;;;;;;1.98;1.60;;;;;;;15.50;69.49;99172.22;2619357;54;20027;-65
2021/10/04 10:53:12;;;;;;;1.85;1.38;;;;;;;15.54;69.47;99157.44;2618836;54;20026;-65
2021/10/04 10:55:43;;;;;;;1.17;1.05;;;;;;;15.73;69.20;99153.03;2618757;54;20026;-65
2021/10/04 10:58:15;;;;;;;1.23;1.02;;;;;;;15.90;68.08;99141.81;2618768;54;20043;-65
2021/10/04 11:00:57;;;;;;;1.92;0.98;;;;;;;16.00;68.19;99144.78;2618571;47;20027;-66
2021/10/04 11:03:27;;;;;;;2.85;1.13;;;;;;;16.11;67.34;99152.09;2619067;54;20056;-65
2021/10/04 11:06:06;;;;;;;2.03;1.65;;;;;;;16.17;66.54;99145.88;2618616;54;20037;-65
2021/10/04 11:09:00;;;;;;;1.60;1.48;;;;;;;16.25;66.04;99150.13;2618571;54;20034;-65
2021/10/04 11:11:34;;;;;;;1.48;0.90;;;;;;;16.29;66.11;99157.47;2618696;54;20033;-65
2021/10/04 11:14:23;;;;;;;2.47;1.23;;;;;;;16.33;65.93;99147.97;2618919;39;20429;-65
2021/10/04 11:17:05;;;;;;;1.38;1.10;;;;;;;16.22;65.95;99158.56;2618207;54;20034;-65
2021/10/04 11:19:38;;;;;;;1.58;1.20;;;;;;;16.33;65.60;99157.84;2618451;54;20598;-65
2021/10/04 11:22:11;;;;;;;0.52;0.52;;;;;;;16.29;65.45;99159.31;2618932;39;20331;-65
2021/10/04 11:24:40;;;;;;;1.23;0.80;;;;;;;16.39;65.47;99154.25;2617820;46;20134;-65
2021/10/04 11:27:10;;;;;;;1.13;0.98;;;;;;;16.47;65.13;99155.81;2618810;39;20273;-65
2021/10/04 11:29:40;;;;;;;1.08;0.90;;;;;;;16.59;64.36;99151.38;2618044;46;20053;-65
2021/10/04 11:32:19;;;;;;;1.10;0.70;;;;;;;16.57;64.17;99146.28;2618410;54;20034;-65
2021/10/04 11:34:49;;;;;;;2.35;0.90;;;;;;;16.65;64.39;99145.13;2618382;54;20081;-65
2021/10/04 11:37:25;;;;;;;1.17;0.50;;;;;;;16.56;63.57;99147.28;2618511;54;20031;-65
2021/10/04 11:39:55;;;;;;;0.68;0.68;;;;;;;16.56;63.33;99147.28;2618312;54;20034;-66
2021/10/04 11:42:25;;;;;;;0.60;0.60;;;;;;;16.61;63.01;99149.28;2618160;54;20041;-65
2021/10/04 11:44:54;;;;;;;0.60;0.60;;;;;;;16.58;63.16;99145.22;2617964;54;20049;-65
2021/10/04 11:47:27;;;;;;;1.83;1.10;;;;;;;16.74;63.04;99156.38;2618377;54;20033;-65
2021/10/04 11:49:56;;;;;;;2.00;0.60;;;;;;;16.80;63.00;99156.28;2618423;54;20026;-65
2021/10/04 11:52:29;;;;;;;0.70;0.65;;;;;;;16.81;62.58;99149.91;2618233;54;20038;-65
2021/10/04 11:54:59;;;;;;;0.98;0.68;;;;;;;16.81;62.38;99157.91;2617819;39;20507;-65
2021/10/04 11:57:35;;;;;;;0.70;0.60;;;;;;;16.82;62.33;99158.75;2618214;54;20039;-65